»·PEaware :: N101JP KSAN-KSBA

N101JP :: KSAN-KSBA

FLIGHT INFORMATION

Flight Status: Arrived
Operator: Privately registered:
United States
More flights under this callsign
Pilot: James T. (870)
Aircraft: BEECH AIRCRAFT SUPER KING AIR COMMUTER
(BE20)
More flights by this aircraft type
Origin: KSAN San Diego Intl-Lindbergh
United States
Destination: KSBA Santa Barbara Mun
United States
More flights between these airports :: More routes between these airports
Route: SANN36
File this flight plan on PilotEdge
Remarks:
Altitude:
(Current/Filed)
80ft
Speed:
(Current/Filed)
220kts
Departed: 17-Jul-18 11:09 AM
Arrived: 17-Jul-18 12:11 PM
Distance/Time
Traveled:
167nm/1:02
Distance/Time
To Go:
Arrived

Flight Plot

Page will automatically refresh every two minutes.

Flight plan parsing failed; only flown route is shown


Map Options




Map Legend


Flown Route
Filed Route
Departure Airport
Arrival Airport
Navaid (VOR, NDB)
Fix

Horizontal Profiles

Position Reports

Time Latitude Longitude Heading Altitude Ground
Speed
17-Jul-18 10:56 32.732207 -117.177467 80 21ft 0kts
17-Jul-18 10:57 32.732207 -117.177467 80 21ft 0kts
17-Jul-18 10:58 32.732207 -117.177467 80 21ft 0kts
17-Jul-18 10:59 32.732207 -117.177467 80 21ft 0kts
17-Jul-18 11:00 32.732207 -117.177467 80 21ft 0kts
17-Jul-18 11:01 32.732207 -117.177467 80 21ft 0kts
17-Jul-18 11:02 32.732207 -117.177467 80 21ft 0kts
17-Jul-18 11:03 32.732207 -117.177467 80 21ft 0kts
17-Jul-18 11:04 32.732207 -117.177467 80 21ft 0kts
17-Jul-18 11:05 32.731864 -117.176748 137 21ft 5kts
17-Jul-18 11:06 32.730958 -117.175362 163 21ft 0kts
17-Jul-18 11:07 32.730958 -117.175362 163 21ft 0kts
17-Jul-18 11:08 32.730223 -117.175256 231 21ft 6kts
17-Jul-18 11:09 32.730192 -117.175767 286 21ft 0kts
17-Jul-18 11:10 32.743007 -117.206088 305 860ft 163kts
17-Jul-18 11:11 32.771207 -117.250722 306 2759ft 173kts
17-Jul-18 11:12 32.799177 -117.296275 306 4643ft 171kts
17-Jul-18 11:13 32.826345 -117.341737 306 6415ft 169kts
17-Jul-18 11:14 32.854455 -117.389599 305 7963ft 187kts
17-Jul-18 11:15 32.885952 -117.443330 306 7997ft 208kts
17-Jul-18 11:16 32.929825 -117.486956 330 7997ft 214kts
17-Jul-18 11:17 32.981365 -117.521953 329 7999ft 216kts
17-Jul-18 11:18 33.016822 -117.578762 304 7999ft 217kts
17-Jul-18 11:19 33.052571 -117.635584 310 7998ft 217kts
17-Jul-18 11:20 33.091356 -117.689962 311 7999ft 216kts
17-Jul-18 11:21 33.129811 -117.743458 311 8000ft 217kts
17-Jul-18 11:22 33.168770 -117.797474 311 8000ft 217kts
17-Jul-18 11:23 33.207161 -117.850316 311 8001ft 217kts
17-Jul-18 11:24 33.243110 -117.903683 306 8008ft 217kts
17-Jul-18 11:25 33.276018 -117.960273 305 8017ft 218kts
17-Jul-18 11:26 33.307859 -118.017526 304 8022ft 219kts
17-Jul-18 11:27 33.327471 -118.081694 281 8025ft 222kts
17-Jul-18 11:28 33.337566 -118.150568 281 8027ft 223kts
17-Jul-18 11:29 33.347714 -118.221826 280 8028ft 223kts
17-Jul-18 11:30 33.358010 -118.294815 280 8000ft 225kts
17-Jul-18 11:31 33.368337 -118.368409 280 8000ft 224kts
17-Jul-18 11:32 33.387982 -118.437011 310 8001ft 221kts
17-Jul-18 11:33 33.427295 -118.493365 311 8000ft 221kts
17-Jul-18 11:34 33.467053 -118.550070 311 8000ft 224kts
17-Jul-18 11:35 33.507189 -118.607342 311 8000ft 226kts
17-Jul-18 11:36 33.547518 -118.664949 311 7999ft 226kts
17-Jul-18 11:37 33.587750 -118.722337 310 7999ft 226kts
17-Jul-18 11:38 33.628216 -118.780151 311 7994ft 226kts
17-Jul-18 11:39 33.668376 -118.837707 310 7983ft 225kts
17-Jul-18 11:40 33.708364 -118.894989 309 7974ft 227kts
17-Jul-18 11:41 33.749256 -118.954070 309 7971ft 232kts
17-Jul-18 11:42 33.755402 -118.962936 309 7972ft 232kts
17-Jul-18 11:43 33.800808 -119.014458 351 7975ft 227kts
17-Jul-18 11:44 33.861411 -119.029083 321 8017ft 229kts
17-Jul-18 11:45 33.908912 -119.080062 318 8009ft 231kts
17-Jul-18 11:46 33.956821 -119.131537 319 8009ft 231kts
17-Jul-18 11:47 34.001960 -119.180360 318 8000ft 232kts
17-Jul-18 11:48 34.043940 -119.225651 318 8000ft 231kts
17-Jul-18 11:49 34.091520 -119.277154 319 8000ft 231kts
17-Jul-18 11:50 34.138880 -119.328412 319 8000ft 231kts
17-Jul-18 11:51 34.186102 -119.379877 318 8000ft 231kts
17-Jul-18 11:52 34.232467 -119.430566 319 8000ft 231kts
17-Jul-18 11:53 34.279586 -119.481593 319 7997ft 226kts
17-Jul-18 11:54 34.320648 -119.527085 316 7995ft 186kts
17-Jul-18 11:55 34.327740 -119.577175 249 7999ft 167kts
17-Jul-18 11:56 34.317304 -119.634355 270 8004ft 191kts
17-Jul-18 11:57 34.320381 -119.700545 273 8000ft 205kts
17-Jul-18 11:58 34.323661 -119.767869 272 7998ft 199kts
17-Jul-18 11:59 34.326832 -119.833853 273 7999ft 197kts
17-Jul-18 12:00 34.330098 -119.899671 273 7999ft 196kts
17-Jul-18 12:01 34.333379 -119.965576 273 8000ft 197kts
17-Jul-18 12:02 34.336754 -120.031844 273 8000ft 198kts
17-Jul-18 12:03 34.340141 -120.098275 273 8000ft 199kts
17-Jul-18 12:04 34.373550 -120.136366 283 7281ft 183kts
17-Jul-18 12:05 34.403558 -120.172610 36 5732ft 203kts
17-Jul-18 12:06 34.422371 -120.111285 85 4167ft 197kts
17-Jul-18 12:07 34.422422 -120.045868 86 2577ft 193kts
17-Jul-18 12:08 34.424433 -119.986213 88 2017ft 154kts
17-Jul-18 12:09 34.425623 -119.941864 87 1423ft 115kts
17-Jul-18 12:10 34.426367 -119.905153 87 857ft 106kts
17-Jul-18 12:11 34.427156 -119.869652 88 300ft 106kts
17-Jul-18 12:12 34.427742 -119.843073 90 17ft 19kts
17-Jul-18 12:13 34.426761 -119.841359 136 17ft 5kts
17-Jul-18 12:14 34.426695 -119.838940 89 17ft 6kts
17-Jul-18 12:15 34.426227 -119.837588 122 17ft 0kts

Navigation Log

Ident Type
Flight plan parsing failed, navigation log unavailable